sensor_id;sensor_type;location;lat;lon;timestamp;temperature;humidity
43858;DHT22;29507;51.284;5.758;2023-04-24T00:00:04;9.40;99.90
43858;DHT22;29507;51.284;5.758;2023-04-24T00:02:38;9.40;99.90
43858;DHT22;29507;51.284;5.758;2023-04-24T00:05:07;9.40;99.90
43858;DHT22;29507;51.284;5.758;2023-04-24T00:07:33;9.30;99.90
43858;DHT22;29507;51.284;5.758;2023-04-24T00:09:59;9.30;99.90
43858;DHT22;29507;51.284;5.758;2023-04-24T00:12:25;9.30;99.90
43858;DHT22;29507;51.284;5.758;2023-04-24T00:14:51;9.30;99.90
43858;DHT22;29507;51.284;5.758;2023-04-24T00:17:17;9.30;99.90
43858;DHT22;29507;51.284;5.758;2023-04-24T00:19:45;9.20;99.90
43858;DHT22;29507;51.284;5.758;2023-04-24T00:22:11;9.20;99.90
43858;DHT22;29507;51.284;5.758;2023-04-24T00:24:39;9.20;99.90
43858;DHT22;29507;51.284;5.758;2023-04-24T00:27:04;9.20;99.90
43858;DHT22;29507;51.284;5.758;2023-04-24T00:29:30;9.20;99.90
43858;DHT22;29507;51.284;5.758;2023-04-24T00:31:56;9.10;99.90
43858;DHT22;29507;51.284;5.758;2023-04-24T00:34:21;9.10;99.90
43858;DHT22;29507;51.284;5.758;2023-04-24T00:36:47;9.10;99.90
43858;DHT22;29507;51.284;5.758;2023-04-24T00:39:14;9.10;99.90
43858;DHT22;29507;51.284;5.758;2023-04-24T00:41:40;9.10;99.90
43858;DHT22;29507;51.284;5.758;2023-04-24T00:44:06;9.10;99.90
43858;DHT22;29507;51.284;5.758;2023-04-24T00:46:32;9.10;99.90
43858;DHT22;29507;51.284;5.758;2023-04-24T00:48:59;9.10;99.90
43858;DHT22;29507;51.284;5.758;2023-04-24T00:51:24;9.00;99.90
43858;DHT22;29507;51.284;5.758;2023-04-24T00:53:50;9.10;99.90
43858;DHT22;29507;51.284;5.758;2023-04-24T00:56:17;9.10;99.90
43858;DHT22;29507;51.284;5.758;2023-04-24T00:58:43;9.10;99.90
43858;DHT22;29507;51.284;5.758;2023-04-24T01:01:10;9.10;99.90
43858;DHT22;29507;51.284;5.758;2023-04-24T01:03:37;9.10;99.90
43858;DHT22;29507;51.284;5.758;2023-04-24T01:06:04;9.00;99.90
43858;DHT22;29507;51.284;5.758;2023-04-24T01:08:30;9.10;99.90
43858;DHT22;29507;51.284;5.758;2023-04-24T01:10:57;9.00;99.90
43858;DHT22;29507;51.284;5.758;2023-04-24T01:13:23;9.00;99.90
43858;DHT22;29507;51.284;5.758;2023-04-24T01:15:48;8.80;99.90
43858;DHT22;29507;51.284;5.758;2023-04-24T01:18:14;8.80;99.90
43858;DHT22;29507;51.284;5.758;2023-04-24T01:20:41;8.90;99.90
43858;DHT22;29507;51.284;5.758;2023-04-24T01:23:08;8.90;99.90
43858;DHT22;29507;51.284;5.758;2023-04-24T01:25:34;9.00;99.90
43858;DHT22;29507;51.284;5.758;2023-04-24T01:28:00;8.90;99.90
43858;DHT22;29507;51.284;5.758;2023-04-24T01:30:26;8.90;99.90
43858;DHT22;29507;51.284;5.758;2023-04-24T01:32:52;8.90;99.90
43858;DHT22;29507;51.284;5.758;2023-04-24T01:35:19;8.90;99.90
43858;DHT22;29507;51.284;5.758;2023-04-24T01:37:45;9.00;99.90
43858;DHT22;29507;51.284;5.758;2023-04-24T01:40:11;9.00;99.90
43858;DHT22;29507;51.284;5.758;2023-04-24T01:42:37;9.00;99.90
43858;DHT22;29507;51.284;5.758;2023-04-24T01:45:04;9.00;99.90
43858;DHT22;29507;51.284;5.758;2023-04-24T01:47:31;9.00;99.90
43858;DHT22;29507;51.284;5.758;2023-04-24T01:49:57;9.00;99.90
43858;DHT22;29507;51.284;5.758;2023-04-24T01:52:23;9.00;99.90
43858;DHT22;29507;51.284;5.758;2023-04-24T01:54:48;9.00;99.90
43858;DHT22;29507;51.284;5.758;2023-04-24T01:57:17;9.10;99.90
43858;DHT22;29507;51.284;5.758;2023-04-24T01:59:42;9.10;99.90
43858;DHT22;29507;51.284;5.758;2023-04-24T02:02:08;9.10;99.90
43858;DHT22;29507;51.284;5.758;2023-04-24T02:04:33;9.10;99.90
43858;DHT22;29507;51.284;5.758;2023-04-24T02:06:59;9.00;99.90
43858;DHT22;29507;51.284;5.758;2023-04-24T02:09:25;9.10;99.90
43858;DHT22;29507;51.284;5.758;2023-04-24T02:11:50;9.10;99.90
43858;DHT22;29507;51.284;5.758;2023-04-24T02:14:16;9.10;99.90
43858;DHT22;29507;51.284;5.758;2023-04-24T02:16:42;9.10;99.90
43858;DHT22;29507;51.284;5.758;2023-04-24T02:19:07;9.10;99.90
43858;DHT22;29507;51.284;5.758;2023-04-24T02:21:33;9.10;99.90
43858;DHT22;29507;51.284;5.758;2023-04-24T02:23:59;9.10;99.90
43858;DHT22;29507;51.284;5.758;2023-04-24T02:26:25;9.20;99.90
43858;DHT22;29507;51.284;5.758;2023-04-24T02:28:51;9.10;99.90
43858;DHT22;29507;51.284;5.758;2023-04-24T02:31:17;9.10;99.90
43858;DHT22;29507;51.284;5.758;2023-04-24T02:33:42;9.00;99.90
43858;DHT22;29507;51.284;5.758;2023-04-24T02:36:08;9.00;99.90
43858;DHT22;29507;51.284;5.758;2023-04-24T02:38:33;9.00;99.90
43858;DHT22;29507;51.284;5.758;2023-04-24T02:40:59;9.00;99.90
43858;DHT22;29507;51.284;5.758;2023-04-24T02:43:26;9.10;99.90
43858;DHT22;29507;51.284;5.758;2023-04-24T02:45:51;9.10;99.90
43858;DHT22;29507;51.284;5.758;2023-04-24T02:48:17;9.10;99.90
43858;DHT22;29507;51.284;5.758;2023-04-24T02:50:42;9.10;99.90
43858;DHT22;29507;51.284;5.758;2023-04-24T02:53:08;9.00;99.90
43858;DHT22;29507;51.284;5.758;2023-04-24T02:55:33;9.10;99.90
43858;DHT22;29507;51.284;5.758;2023-04-24T02:57:59;9.00;99.90
43858;DHT22;29507;51.284;5.758;2023-04-24T03:00:25;9.10;99.90
43858;DHT22;29507;51.284;5.758;2023-04-24T03:02:51;9.10;99.90
43858;DHT22;29507;51.284;5.758;2023-04-24T03:05:16;9.10;99.90
43858;DHT22;29507;51.284;5.758;2023-04-24T03:07:42;9.00;99.90
43858;DHT22;29507;51.284;5.758;2023-04-24T03:10:08;9.00;99.90
43858;DHT22;29507;51.284;5.758;2023-04-24T03:12:33;9.00;99.90
43858;DHT22;29507;51.284;5.758;2023-04-24T03:14:59;8.90;99.90
43858;DHT22;29507;51.284;5.758;2023-04-24T03:17:25;8.90;99.90
43858;DHT22;29507;51.284;5.758;2023-04-24T03:19:50;8.90;99.90
43858;DHT22;29507;51.284;5.758;2023-04-24T03:22:16;8.90;99.90
43858;DHT22;29507;51.284;5.758;2023-04-24T03:24:41;8.90;99.90
43858;DHT22;29507;51.284;5.758;2023-04-24T03:27:07;8.90;99.90
43858;DHT22;29507;51.284;5.758;2023-04-24T03:29:33;8.80;99.90
43858;DHT22;29507;51.284;5.758;2023-04-24T03:31:58;8.80;99.90
43858;DHT22;29507;51.284;5.758;2023-04-24T03:34:24;8.80;99.90
43858;DHT22;29507;51.284;5.758;2023-04-24T03:36:50;8.80;99.90
43858;DHT22;29507;51.284;5.758;2023-04-24T03:39:15;8.80;99.90
43858;DHT22;29507;51.284;5.758;2023-04-24T03:41:41;8.80;99.90
43858;DHT22;29507;51.284;5.758;2023-04-24T03:44:06;8.80;99.90
43858;DHT22;29507;51.284;5.758;2023-04-24T03:46:32;8.80;99.90
43858;DHT22;29507;51.284;5.758;2023-04-24T03:48:58;8.80;99.90
43858;DHT22;29507;51.284;5.758;2023-04-24T03:51:23;8.90;99.90
43858;DHT22;29507;51.284;5.758;2023-04-24T03:53:49;8.90;99.90
43858;DHT22;29507;51.284;5.758;2023-04-24T03:56:15;8.80;99.90
43858;DHT22;29507;51.284;5.758;2023-04-24T03:58:40;8.90;99.90
43858;DHT22;29507;51.284;5.758;2023-04-24T04:01:06;8.80;99.90
43858;DHT22;29507;51.284;5.758;2023-04-24T04:03:33;8.80;99.90
43858;DHT22;29507;51.284;5.758;2023-04-24T04:05:58;8.70;99.90
43858;DHT22;29507;51.284;5.758;2023-04-24T04:08:24;8.70;99.90
43858;DHT22;29507;51.284;5.758;2023-04-24T04:10:50;8.50;99.90
43858;DHT22;29507;51.284;5.758;2023-04-24T04:13:15;8.50;99.90
43858;DHT22;29507;51.284;5.758;2023-04-24T04:15:41;8.40;99.90
43858;DHT22;29507;51.284;5.758;2023-04-24T04:18:06;8.40;99.90
43858;DHT22;29507;51.284;5.758;2023-04-24T04:20:32;8.40;99.90
43858;DHT22;29507;51.284;5.758;2023-04-24T04:22:58;8.40;99.90
43858;DHT22;29507;51.284;5.758;2023-04-24T04:25:23;8.40;99.90
43858;DHT22;29507;51.284;5.758;2023-04-24T04:27:49;8.40;99.90
43858;DHT22;29507;51.284;5.758;2023-04-24T04:30:16;8.50;99.90
43858;DHT22;29507;51.284;5.758;2023-04-24T04:32:42;8.50;99.90
43858;DHT22;29507;51.284;5.758;2023-04-24T04:35:07;8.40;99.90
43858;DHT22;29507;51.284;5.758;2023-04-24T04:37:33;8.40;99.90
43858;DHT22;29507;51.284;5.758;2023-04-24T04:39:59;8.30;99.90
43858;DHT22;29507;51.284;5.758;2023-04-24T04:42:28;8.20;99.90
43858;DHT22;29507;51.284;5.758;2023-04-24T04:44:54;8.10;99.90
43858;DHT22;29507;51.284;5.758;2023-04-24T04:47:21;8.00;99.90
43858;DHT22;29507;51.284;5.758;2023-04-24T04:49:48;7.90;99.90
43858;DHT22;29507;51.284;5.758;2023-04-24T04:52:14;8.00;99.90
43858;DHT22;29507;51.284;5.758;2023-04-24T04:54:40;8.00;99.90
43858;DHT22;29507;51.284;5.758;2023-04-24T04:57:06;7.90;99.90
43858;DHT22;29507;51.284;5.758;2023-04-24T04:59:31;7.80;99.90
43858;DHT22;29507;51.284;5.758;2023-04-24T05:01:57;7.80;99.90
43858;DHT22;29507;51.284;5.758;2023-04-24T05:04:22;7.80;99.90
43858;DHT22;29507;51.284;5.758;2023-04-24T05:06:48;7.70;99.90
43858;DHT22;29507;51.284;5.758;2023-04-24T05:09:16;7.70;99.90
43858;DHT22;29507;51.284;5.758;2023-04-24T05:11:42;7.70;99.90
43858;DHT22;29507;51.284;5.758;2023-04-24T05:14:07;7.70;99.90
43858;DHT22;29507;51.284;5.758;2023-04-24T05:16:33;7.70;99.90
43858;DHT22;29507;51.284;5.758;2023-04-24T05:18:59;7.70;99.90
43858;DHT22;29507;51.284;5.758;2023-04-24T05:21:24;7.70;99.90
43858;DHT22;29507;51.284;5.758;2023-04-24T05:23:50;7.70;99.90
43858;DHT22;29507;51.284;5.758;2023-04-24T05:26:16;7.70;99.90
43858;DHT22;29507;51.284;5.758;2023-04-24T05:28:41;7.70;99.90
43858;DHT22;29507;51.284;5.758;2023-04-24T05:31:07;7.70;99.90
43858;DHT22;29507;51.284;5.758;2023-04-24T05:33:32;7.70;99.90
43858;DHT22;29507;51.284;5.758;2023-04-24T05:35:58;7.70;99.90
43858;DHT22;29507;51.284;5.758;2023-04-24T05:38:24;7.70;99.90
43858;DHT22;29507;51.284;5.758;2023-04-24T05:40:49;7.70;99.90
43858;DHT22;29507;51.284;5.758;2023-04-24T05:43:15;7.70;99.90
43858;DHT22;29507;51.284;5.758;2023-04-24T05:45:40;7.60;99.90
43858;DHT22;29507;51.284;5.758;2023-04-24T05:48:06;7.60;99.90
43858;DHT22;29507;51.284;5.758;2023-04-24T05:50:31;7.60;99.90
43858;DHT22;29507;51.284;5.758;2023-04-24T05:52:57;7.70;99.90
43858;DHT22;29507;51.284;5.758;2023-04-24T05:55:27;7.50;99.90
43858;DHT22;29507;51.284;5.758;2023-04-24T05:57:53;7.50;99.90
43858;DHT22;29507;51.284;5.758;2023-04-24T06:00:19;7.50;99.90
43858;DHT22;29507;51.284;5.758;2023-04-24T06:02:46;7.40;99.90
43858;DHT22;29507;51.284;5.758;2023-04-24T06:05:11;7.40;99.90
43858;DHT22;29507;51.284;5.758;2023-04-24T06:07:37;7.40;99.90
43858;DHT22;29507;51.284;5.758;2023-04-24T06:10:03;7.40;99.90
43858;DHT22;29507;51.284;5.758;2023-04-24T06:12:29;7.40;99.90
43858;DHT22;29507;51.284;5.758;2023-04-24T06:14:54;7.40;99.90
43858;DHT22;29507;51.284;5.758;2023-04-24T06:17:21;7.30;99.90
43858;DHT22;29507;51.284;5.758;2023-04-24T06:19:46;7.30;99.90
43858;DHT22;29507;51.284;5.758;2023-04-24T06:22:12;7.20;99.90
43858;DHT22;29507;51.284;5.758;2023-04-24T06:24:39;7.10;99.90
43858;DHT22;29507;51.284;5.758;2023-04-24T06:27:05;7.10;99.90
43858;DHT22;29507;51.284;5.758;2023-04-24T06:29:31;7.10;99.90
43858;DHT22;29507;51.284;5.758;2023-04-24T06:31:56;7.00;99.90
43858;DHT22;29507;51.284;5.758;2023-04-24T06:34:22;7.00;99.90
43858;DHT22;29507;51.284;5.758;2023-04-24T06:36:47;7.00;99.90
43858;DHT22;29507;51.284;5.758;2023-04-24T06:39:13;7.00;99.90
43858;DHT22;29507;51.284;5.758;2023-04-24T06:41:39;7.00;99.90
43858;DHT22;29507;51.284;5.758;2023-04-24T06:44:05;6.90;99.90
43858;DHT22;29507;51.284;5.758;2023-04-24T06:46:31;6.90;99.90
43858;DHT22;29507;51.284;5.758;2023-04-24T06:48:56;7.00;99.90
43858;DHT22;29507;51.284;5.758;2023-04-24T06:51:26;7.00;99.90
43858;DHT22;29507;51.284;5.758;2023-04-24T06:53:53;7.00;99.90
43858;DHT22;29507;51.284;5.758;2023-04-24T06:56:19;7.00;99.90
43858;DHT22;29507;51.284;5.758;2023-04-24T06:58:46;7.00;99.90
43858;DHT22;29507;51.284;5.758;2023-04-24T07:01:11;7.00;99.90
43858;DHT22;29507;51.284;5.758;2023-04-24T07:03:37;7.00;99.90
43858;DHT22;29507;51.284;5.758;2023-04-24T07:06:03;7.10;99.90
43858;DHT22;29507;51.284;5.758;2023-04-24T07:08:29;7.10;99.90
43858;DHT22;29507;51.284;5.758;2023-04-24T07:10:58;7.10;99.90
43858;DHT22;29507;51.284;5.758;2023-04-24T07:13:24;7.20;99.90
43858;DHT22;29507;51.284;5.758;2023-04-24T07:15:50;7.20;99.90
43858;DHT22;29507;51.284;5.758;2023-04-24T07:18:18;7.20;99.90
43858;DHT22;29507;51.284;5.758;2023-04-24T07:20:43;7.30;99.90
43858;DHT22;29507;51.284;5.758;2023-04-24T07:23:10;7.30;99.90
43858;DHT22;29507;51.284;5.758;2023-04-24T07:25:35;7.30;99.90
43858;DHT22;29507;51.284;5.758;2023-04-24T07:28:01;7.40;99.90
43858;DHT22;29507;51.284;5.758;2023-04-24T07:30:27;7.40;99.90
43858;DHT22;29507;51.284;5.758;2023-04-24T07:32:54;7.50;99.90
43858;DHT22;29507;51.284;5.758;2023-04-24T07:35:20;7.50;99.90
43858;DHT22;29507;51.284;5.758;2023-04-24T07:37:46;7.40;99.90
43858;DHT22;29507;51.284;5.758;2023-04-24T07:40:12;7.40;99.90
43858;DHT22;29507;51.284;5.758;2023-04-24T07:42:38;7.50;99.90
43858;DHT22;29507;51.284;5.758;2023-04-24T07:45:05;7.50;99.90
43858;DHT22;29507;51.284;5.758;2023-04-24T07:47:31;7.40;99.90
43858;DHT22;29507;51.284;5.758;2023-04-24T07:49:57;7.50;99.90
43858;DHT22;29507;51.284;5.758;2023-04-24T07:52:23;7.50;99.90
43858;DHT22;29507;51.284;5.758;2023-04-24T07:54:49;7.50;99.90
43858;DHT22;29507;51.284;5.758;2023-04-24T07:57:15;7.50;99.90
43858;DHT22;29507;51.284;5.758;2023-04-24T07:59:41;7.40;99.90
43858;DHT22;29507;51.284;5.758;2023-04-24T08:02:07;7.40;99.90
43858;DHT22;29507;51.284;5.758;2023-04-24T08:04:33;7.40;99.90
43858;DHT22;29507;51.284;5.758;2023-04-24T08:06:58;7.30;99.90
43858;DHT22;29507;51.284;5.758;2023-04-24T08:09:24;7.40;99.90
43858;DHT22;29507;51.284;5.758;2023-04-24T08:11:50;7.40;99.90
43858;DHT22;29507;51.284;5.758;2023-04-24T08:14:15;7.50;99.90
43858;DHT22;29507;51.284;5.758;2023-04-24T08:16:41;7.40;99.90
43858;DHT22;29507;51.284;5.758;2023-04-24T08:19:07;7.40;99.90
43858;DHT22;29507;51.284;5.758;2023-04-24T08:21:32;7.30;99.90
43858;DHT22;29507;51.284;5.758;2023-04-24T08:23:58;7.30;99.90
43858;DHT22;29507;51.284;5.758;2023-04-24T08:26:24;7.50;99.90
43858;DHT22;29507;51.284;5.758;2023-04-24T08:28:50;7.40;99.90
43858;DHT22;29507;51.284;5.758;2023-04-24T08:31:15;7.40;99.90
43858;DHT22;29507;51.284;5.758;2023-04-24T08:33:41;7.50;99.90
43858;DHT22;29507;51.284;5.758;2023-04-24T08:36:07;7.50;99.90
43858;DHT22;29507;51.284;5.758;2023-04-24T08:38:33;7.50;99.90
43858;DHT22;29507;51.284;5.758;2023-04-24T08:41:00;7.60;99.90
43858;DHT22;29507;51.284;5.758;2023-04-24T08:43:27;7.60;99.90
43858;DHT22;29507;51.284;5.758;2023-04-24T08:45:55;7.80;99.90
43858;DHT22;29507;51.284;5.758;2023-04-24T08:48:22;7.80;99.90
43858;DHT22;29507;51.284;5.758;2023-04-24T08:50:52;7.90;99.90
43858;DHT22;29507;51.284;5.758;2023-04-24T08:53:18;7.90;99.90
43858;DHT22;29507;51.284;5.758;2023-04-24T08:55:47;8.00;99.90
43858;DHT22;29507;51.284;5.758;2023-04-24T08:58:14;8.10;99.90
43858;DHT22;29507;51.284;5.758;2023-04-24T09:00:40;8.10;99.90
43858;DHT22;29507;51.284;5.758;2023-04-24T09:03:18;8.10;99.90
43858;DHT22;29507;51.284;5.758;2023-04-24T09:05:46;8.20;99.90
43858;DHT22;29507;51.284;5.758;2023-04-24T09:08:13;8.30;99.90
43858;DHT22;29507;51.284;5.758;2023-04-24T09:10:40;8.60;99.90
43858;DHT22;29507;51.284;5.758;2023-04-24T09:13:06;8.80;99.90
43858;DHT22;29507;51.284;5.758;2023-04-24T09:15:34;8.90;99.90
43858;DHT22;29507;51.284;5.758;2023-04-24T09:18:00;9.00;99.90
43858;DHT22;29507;51.284;5.758;2023-04-24T09:20:28;9.10;99.90
43858;DHT22;29507;51.284;5.758;2023-04-24T09:22:54;9.20;99.90
43858;DHT22;29507;51.284;5.758;2023-04-24T09:25:21;9.00;99.90
43858;DHT22;29507;51.284;5.758;2023-04-24T09:27:47;8.80;99.90
43858;DHT22;29507;51.284;5.758;2023-04-24T09:30:13;8.60;99.90
43858;DHT22;29507;51.284;5.758;2023-04-24T09:32:39;8.50;99.90
43858;DHT22;29507;51.284;5.758;2023-04-24T09:37:45;8.30;99.90
43858;DHT22;29507;51.284;5.758;2023-04-24T09:40:16;8.20;99.90
43858;DHT22;29507;51.284;5.758;2023-04-24T09:42:50;8.30;99.90
43858;DHT22;29507;51.284;5.758;2023-04-24T09:45:16;8.50;99.90
43858;DHT22;29507;51.284;5.758;2023-04-24T09:47:42;8.70;99.90
43858;DHT22;29507;51.284;5.758;2023-04-24T09:50:15;9.00;99.90
43858;DHT22;29507;51.284;5.758;2023-04-24T09:52:46;9.20;99.90
43858;DHT22;29507;51.284;5.758;2023-04-24T09:55:21;9.30;99.90
43858;DHT22;29507;51.284;5.758;2023-04-24T09:57:58;9.20;99.90
43858;DHT22;29507;51.284;5.758;2023-04-24T10:03:03;9.10;99.90
43858;DHT22;29507;51.284;5.758;2023-04-24T10:05:34;9.10;99.90
43858;DHT22;29507;51.284;5.758;2023-04-24T10:10:28;9.30;99.90
43858;DHT22;29507;51.284;5.758;2023-04-24T10:12:55;9.60;99.90
43858;DHT22;29507;51.284;5.758;2023-04-24T10:15:21;9.70;99.90
43858;DHT22;29507;51.284;5.758;2023-04-24T10:17:51;10.00;99.90
43858;DHT22;29507;51.284;5.758;2023-04-24T10:20:21;10.20;99.90
43858;DHT22;29507;51.284;5.758;2023-04-24T10:22:48;10.30;99.90
43858;DHT22;29507;51.284;5.758;2023-04-24T10:25:20;10.50;99.90
43858;DHT22;29507;51.284;5.758;2023-04-24T10:27:47;10.70;99.90
43858;DHT22;29507;51.284;5.758;2023-04-24T10:30:13;10.80;99.90
43858;DHT22;29507;51.284;5.758;2023-04-24T10:32:39;10.80;99.90
43858;DHT22;29507;51.284;5.758;2023-04-24T10:35:09;11.20;99.90
43858;DHT22;29507;51.284;5.758;2023-04-24T10:37:40;11.30;99.90
43858;DHT22;29507;51.284;5.758;2023-04-24T10:40:08;11.10;99.90
43858;DHT22;29507;51.284;5.758;2023-04-24T10:42:34;10.90;99.90
43858;DHT22;29507;51.284;5.758;2023-04-24T10:45:15;10.60;99.90
43858;DHT22;29507;51.284;5.758;2023-04-24T10:47:41;10.30;99.90
43858;DHT22;29507;51.284;5.758;2023-04-24T10:50:10;10.30;99.90
43858;DHT22;29507;51.284;5.758;2023-04-24T10:52:46;10.20;99.90
43858;DHT22;29507;51.284;5.758;2023-04-24T10:55:13;10.30;99.90
43858;DHT22;29507;51.284;5.758;2023-04-24T10:57:40;10.50;99.90
43858;DHT22;29507;51.284;5.758;2023-04-24T11:00:25;10.60;99.90
43858;DHT22;29507;51.284;5.758;2023-04-24T11:02:53;10.50;99.90
43858;DHT22;29507;51.284;5.758;2023-04-24T11:05:19;10.40;99.90
43858;DHT22;29507;51.284;5.758;2023-04-24T11:13:26;10.00;99.90
43858;DHT22;29507;51.284;5.758;2023-04-24T11:16:15;10.00;99.90
43858;DHT22;29507;51.284;5.758;2023-04-24T11:18:42;10.00;99.90
43858;DHT22;29507;51.284;5.758;2023-04-24T11:21:18;10.20;99.90
43858;DHT22;29507;51.284;5.758;2023-04-24T11:23:45;10.30;99.90
43858;DHT22;29507;51.284;5.758;2023-04-24T11:26:13;10.50;99.90
43858;DHT22;29507;51.284;5.758;2023-04-24T11:28:49;10.50;99.90
43858;DHT22;29507;51.284;5.758;2023-04-24T11:31:38;10.80;99.90
43858;DHT22;29507;51.284;5.758;2023-04-24T11:34:12;11.00;99.90
43858;DHT22;29507;51.284;5.758;2023-04-24T11:36:42;11.20;99.90
43858;DHT22;29507;51.284;5.758;2023-04-24T11:39:08;11.40;99.90
43858;DHT22;29507;51.284;5.758;2023-04-24T11:41:34;11.60;99.90
43858;DHT22;29507;51.284;5.758;2023-04-24T11:44:01;11.50;99.90
43858;DHT22;29507;51.284;5.758;2023-04-24T11:46:29;11.60;99.90
43858;DHT22;29507;51.284;5.758;2023-04-24T11:48:56;11.60;99.90
43858;DHT22;29507;51.284;5.758;2023-04-24T11:51:23;11.70;99.90
43858;DHT22;29507;51.284;5.758;2023-04-24T11:53:51;11.40;99.90
43858;DHT22;29507;51.284;5.758;2023-04-24T11:56:21;11.40;99.90
43858;DHT22;29507;51.284;5.758;2023-04-24T11:58:47;11.40;99.90
43858;DHT22;29507;51.284;5.758;2023-04-24T12:01:13;11.40;99.90
43858;DHT22;29507;51.284;5.758;2023-04-24T12:03:39;11.30;99.90
43858;DHT22;29507;51.284;5.758;2023-04-24T12:06:09;11.40;99.90
43858;DHT22;29507;51.284;5.758;2023-04-24T12:08:36;11.40;99.90
43858;DHT22;29507;51.284;5.758;2023-04-24T12:11:03;11.30;99.90
43858;DHT22;29507;51.284;5.758;2023-04-24T12:13:29;11.20;99.90
43858;DHT22;29507;51.284;5.758;2023-04-24T12:15:54;11.10;99.90
43858;DHT22;29507;51.284;5.758;2023-04-24T12:18:24;11.10;99.90
43858;DHT22;29507;51.284;5.758;2023-04-24T12:20:50;11.00;99.90
43858;DHT22;29507;51.284;5.758;2023-04-24T12:23:16;11.00;99.90
43858;DHT22;29507;51.284;5.758;2023-04-24T12:25:43;11.00;99.90
43858;DHT22;29507;51.284;5.758;2023-04-24T12:28:12;10.90;99.90
43858;DHT22;29507;51.284;5.758;2023-04-24T12:30:45;10.90;99.90
43858;DHT22;29507;51.284;5.758;2023-04-24T12:33:20;10.90;99.90
43858;DHT22;29507;51.284;5.758;2023-04-24T12:35:47;10.80;99.90
43858;DHT22;29507;51.284;5.758;2023-04-24T12:38:14;10.80;99.90
43858;DHT22;29507;51.284;5.758;2023-04-24T12:40:41;11.00;99.90
43858;DHT22;29507;51.284;5.758;2023-04-24T12:43:17;10.90;99.90
43858;DHT22;29507;51.284;5.758;2023-04-24T12:45:42;10.90;99.90
43858;DHT22;29507;51.284;5.758;2023-04-24T12:48:08;10.90;99.90
43858;DHT22;29507;51.284;5.758;2023-04-24T12:50:34;10.90;99.90
43858;DHT22;29507;51.284;5.758;2023-04-24T12:52:59;10.80;99.90
43858;DHT22;29507;51.284;5.758;2023-04-24T12:55:25;10.90;99.90
43858;DHT22;29507;51.284;5.758;2023-04-24T12:57:50;11.00;99.90
43858;DHT22;29507;51.284;5.758;2023-04-24T13:00:17;11.00;99.90
43858;DHT22;29507;51.284;5.758;2023-04-24T13:02:43;11.10;99.90
43858;DHT22;29507;51.284;5.758;2023-04-24T13:05:11;11.30;99.90
43858;DHT22;29507;51.284;5.758;2023-04-24T13:07:39;11.30;99.90
43858;DHT22;29507;51.284;5.758;2023-04-24T13:10:05;11.50;99.90
43858;DHT22;29507;51.284;5.758;2023-04-24T13:12:31;11.30;99.90
43858;DHT22;29507;51.284;5.758;2023-04-24T13:14:58;11.40;99.90
43858;DHT22;29507;51.284;5.758;2023-04-24T13:17:24;11.30;99.90
43858;DHT22;29507;51.284;5.758;2023-04-24T13:19:50;11.30;99.90
43858;DHT22;29507;51.284;5.758;2023-04-24T13:22:17;11.20;99.90
43858;DHT22;29507;51.284;5.758;2023-04-24T13:24:44;11.20;99.90
43858;DHT22;29507;51.284;5.758;2023-04-24T13:27:10;11.20;99.90
43858;DHT22;29507;51.284;5.758;2023-04-24T13:29:36;11.10;99.90
43858;DHT22;29507;51.284;5.758;2023-04-24T13:32:02;11.20;99.90
43858;DHT22;29507;51.284;5.758;2023-04-24T13:34:28;11.50;99.90
43858;DHT22;29507;51.284;5.758;2023-04-24T13:36:55;11.90;99.90
43858;DHT22;29507;51.284;5.758;2023-04-24T13:39:22;12.10;99.90
43858;DHT22;29507;51.284;5.758;2023-04-24T13:41:48;12.00;99.90
43858;DHT22;29507;51.284;5.758;2023-04-24T13:44:14;11.90;99.90
43858;DHT22;29507;51.284;5.758;2023-04-24T13:46:41;11.70;99.90
43858;DHT22;29507;51.284;5.758;2023-04-24T13:49:06;11.50;99.90
43858;DHT22;29507;51.284;5.758;2023-04-24T13:51:32;11.40;99.90
43858;DHT22;29507;51.284;5.758;2023-04-24T13:53:58;11.30;99.90
43858;DHT22;29507;51.284;5.758;2023-04-24T13:56:25;11.30;99.90
43858;DHT22;29507;51.284;5.758;2023-04-24T13:58:51;11.50;99.90
43858;DHT22;29507;51.284;5.758;2023-04-24T14:01:16;11.80;99.90
43858;DHT22;29507;51.284;5.758;2023-04-24T14:03:42;12.40;99.90
43858;DHT22;29507;51.284;5.758;2023-04-24T14:06:10;12.40;99.90
43858;DHT22;29507;51.284;5.758;2023-04-24T14:08:36;12.50;99.90
43858;DHT22;29507;51.284;5.758;2023-04-24T14:11:02;12.30;99.90
43858;DHT22;29507;51.284;5.758;2023-04-24T14:13:28;12.40;99.90
43858;DHT22;29507;51.284;5.758;2023-04-24T14:15:54;12.50;99.90
43858;DHT22;29507;51.284;5.758;2023-04-24T14:18:20;12.50;99.90
43858;DHT22;29507;51.284;5.758;2023-04-24T14:20:45;12.30;99.90
43858;DHT22;29507;51.284;5.758;2023-04-24T14:23:11;12.30;99.90
43858;DHT22;29507;51.284;5.758;2023-04-24T14:25:37;12.20;99.90
43858;DHT22;29507;51.284;5.758;2023-04-24T14:28:02;12.00;99.90
43858;DHT22;29507;51.284;5.758;2023-04-24T14:30:28;11.90;99.90
43858;DHT22;29507;51.284;5.758;2023-04-24T14:32:53;11.90;99.90
43858;DHT22;29507;51.284;5.758;2023-04-24T14:35:19;11.80;99.90
43858;DHT22;29507;51.284;5.758;2023-04-24T14:37:45;11.80;99.90
43858;DHT22;29507;51.284;5.758;2023-04-24T14:40:11;12.50;99.90
43858;DHT22;29507;51.284;5.758;2023-04-24T14:42:36;13.20;99.90
43858;DHT22;29507;51.284;5.758;2023-04-24T14:45:02;13.70;99.90
43858;DHT22;29507;51.284;5.758;2023-04-24T14:47:28;13.90;99.90
43858;DHT22;29507;51.284;5.758;2023-04-24T14:49:54;13.80;99.90
43858;DHT22;29507;51.284;5.758;2023-04-24T14:52:20;13.80;99.90
43858;DHT22;29507;51.284;5.758;2023-04-24T14:54:46;13.90;99.90
43858;DHT22;29507;51.284;5.758;2023-04-24T14:57:12;13.90;99.90
43858;DHT22;29507;51.284;5.758;2023-04-24T14:59:37;13.40;99.90
43858;DHT22;29507;51.284;5.758;2023-04-24T15:02:03;12.90;99.90
43858;DHT22;29507;51.284;5.758;2023-04-24T15:04:28;12.50;99.90
43858;DHT22;29507;51.284;5.758;2023-04-24T15:06:56;12.40;99.90
43858;DHT22;29507;51.284;5.758;2023-04-24T15:09:22;12.50;99.90
43858;DHT22;29507;51.284;5.758;2023-04-24T15:11:49;12.50;99.90
43858;DHT22;29507;51.284;5.758;2023-04-24T15:14:15;12.60;99.90
43858;DHT22;29507;51.284;5.758;2023-04-24T15:16:42;12.70;99.90
43858;DHT22;29507;51.284;5.758;2023-04-24T15:19:08;12.60;99.90
43858;DHT22;29507;51.284;5.758;2023-04-24T15:21:35;12.40;99.90
43858;DHT22;29507;51.284;5.758;2023-04-24T15:24:00;12.30;99.90
43858;DHT22;29507;51.284;5.758;2023-04-24T15:26:26;12.40;99.90
43858;DHT22;29507;51.284;5.758;2023-04-24T15:28:52;12.50;99.90
43858;DHT22;29507;51.284;5.758;2023-04-24T15:31:18;12.60;99.90
43858;DHT22;29507;51.284;5.758;2023-04-24T15:33:44;12.40;99.90
43858;DHT22;29507;51.284;5.758;2023-04-24T15:36:09;12.40;99.90
43858;DHT22;29507;51.284;5.758;2023-04-24T15:38:35;12.50;99.90
43858;DHT22;29507;51.284;5.758;2023-04-24T15:41:02;12.70;99.90
43858;DHT22;29507;51.284;5.758;2023-04-24T15:43:27;12.60;99.90
43858;DHT22;29507;51.284;5.758;2023-04-24T15:45:56;12.40;99.90
43858;DHT22;29507;51.284;5.758;2023-04-24T15:48:22;12.40;99.90